AirNav   Air Wisconsin Up To $57,000 Bonus
 
 1257 users online  

5CN4 Vosburgh Airfield
Cuyama, California, USA

GOING TO CUYAMA?


FAA INFORMATION EFFECTIVE 18 JULY 2019

Location

FAA Identifier: 5CN4
Lat/Long: 34-55-25.0800N / 119-34-17.4000W
34-55.418000N / 119-34.290000W
34.9236333 / -119.5715000
(estimated)
Elevation: 2200 ft. / 671 m (estimated)
From city: 3 miles E of CUYAMA, CA
Time zone: UTC -7 (UTC -8 during Standard Time)
Zip code: 93254

Airport Operations

Airport use: Private use. Permission required prior to landing
Activation date: 02/2011
Control tower: no
ARTCC: LOS ANGELES CENTER
FSS: RANCHO MURIETA FLIGHT SERVICE STATION
Attendance: CONTINUOUS
Wind indicator: yes
Segmented circle: no

Nearby radio navigation aids

VOR radial/distance  VOR name  Freq  Var
FLWr109/17.7FELLOWS VOR/DME117.5016E
RZSr008/26.7SAN MARCUS VORTAC114.9014E
GVOr031/34.8GAVIOTA VORTAC113.8016E
GMNr266/35.7GORMAN VORTAC116.1016E

Airport Services

Runway Information

Runway 16/34

Dimensions: 2600 x 60 ft. / 792 x 18 m
Surface: dirt, in good condition
RUNWAY 16  RUNWAY 34
Traffic pattern: leftleft
Obstructions: 30 ft. plines, 50 ft. from runwaynone

Airport Ownership and Management from official FAA records

Ownership: Privately-owned
Owner: JASON DOUGLAS VOSBURGH
162 MANLEY CHAPEL RD
FAIRMONT, WV 26554-5359
Phone 805-766-3880
Manager: JASON VOSBURGH
1654 HWY 166
CUYAMA, CA 93254
Phone 805-766-3880

Airport Operational Statistics

Aircraft based on the field: 1
Single engine airplanes: 1
    

Additional Remarks

FOR CD CTC LOS ANGELES ARTCC AT 661-575-2079.

Instrument Procedures

There are no published instrument procedures at 5CN4.

Some nearby airports with instrument procedures:

KIZA - Santa Ynez Airport (31 nm SW)
KSBA - Santa Barbara Municipal Airport (33 nm SW)
L45 - Bakersfield Municipal Airport (37 nm NE)
KBFL - Meadows Field Airport (40 nm NE)
KMIT - Shafter Airport-Minter Field (40 nm NE)
 
Loc | Ops | Rwys | IFR | FBO | Links
Com | Nav | Svcs | Stats | Notes
Aerial photo
WARNING: Photo may not be current or correct
Aerial photo of 5CN4 (Vosburgh Airfield)
Photo by Jason Vosburgh
Photo taken 28-May-2011

Do you have a better or more recent aerial photo of Vosburgh Airfield that you would like to share? If so, please send us your photo.

 
Sectional chart

 
Airport distance calculator
Flying to Vosburgh Airfield? Find the distance to fly.

From to 5CN4

Sunrise and sunset
Times for 23-Jul-2019
 Local
(UTC-7)
 Zulu
(UTC)
Morning civil twilight05:3412:34
Sunrise06:0213:02
Sunset20:0703:07
Evening civil twilight20:3603:36

Current date and time
Zulu (UTC)  24-Jul-2019 01:21:56
Local (UTC-7)  23-Jul-2019 18:21:56
 
METAR
KIZA 
31nm SW 
240055Z AUTO 25007KT 10SM CLR 27/13 A2996 RMK AO2
KSBA 
32nm SW 
240053Z 26008KT 10SM SCT040 BKN150 25/15 A2991 RMK AO2 SLP128 T02500150
KBFL 
40nm NE 
240054Z 31010KT 10SM CLR 37/15 A2988 RMK AO2 SLP111 T03670150
KSMX 
43nm W 
240051Z 32008KT 10SM CLR 18/14 A2999 RMK AO2 SLP156 T01830139
KSDB 
43nm E 
240053Z AUTO 20010KT 10SM CLR 31/10 A3019 RMK AO2 SLPNO T03110100
KLPC 
47nm W 
240056Z AUTO 26010KT 10SM CLR 18/14 A2999 RMK AO2 SLP157 T01780139
KOXR 
47nm SE 
240051Z 28014KT 10SM CLR 22/15 A2991 RMK AO2 SLP129 T02220150
2CN4 
47nm N 
SuperAWOS
240055Z AUTO 00000KT 10SM 37/18 A2994
KCMA 
49nm SE 
240055Z 24007KT 9SM CLR 24/14 A2992 RMK AO2 SLP139 T02440144
TAF
KSBA 
32nm SW 
231738Z 2318/2418 00000KT P6SM SCT002 FM231900 17005KT P6SM SCT010 BKN150 FM232200 24008KT P6SM BKN150 FM240400 VRB03KT P6SM BKN150 FM240900 VRB03KT 1SM BR OVC003 FM241600 16005KT 4SM BR BKN005
KBFL 
40nm NE 
231720Z 2318/2418 18008KT P6SM FEW050 SCT120 BKN200 FM240900 32006KT P6SM FEW120 SCT200
NOTAMs
Click for the latest NOTAMs
NOTAMs are issued by the DoD/FAA and will open in a separate window not controlled by AirNav.

 

 
 

Would you like to see your business listed on this page?

 If your business provides an interesting product or service to pilots, flight crews, aircraft, or users of the Vosburgh Airfield, you should consider listing it here.  To start the listing process, click on the button below
 
Add a business
 

Other Pages about Vosburgh Airfield

Update a link
 
Copyright © AirNav, LLC. All rights reserved. Privacy Policy  Contact